Time;durP1;ratioP1;P1;durP2;ratioP2;P2;SDS_P1;SDS_P2;PMS_P1;PMS_P2;Temp;Humidity;BMP_temperature;BMP_pressure;BME280_temperature;BME280_humidity;BME280_pressure;Samples;Min_cycle;Max_cycle;Signal;HPM_P1;HPM_P2
2023/09/12 00:01:17;;;;;;;36.22;31.70;;;;;;;;;;4973551;28;20129;-76
2023/09/12 00:03:43;;;;;;;36.83;32.97;;;;;;;;;;4972142;28;20473;-75
2023/09/12 00:06:09;;;;;;;37.05;33.13;;;;;;;;;;4944594;28;20130;-76
2023/09/12 00:08:35;;;;;;;37.00;33.00;;;;;;;;;;4959155;28;20043;-76
2023/09/12 00:11:01;;;;;;;38.13;34.13;;;;;;;;;;4953409;28;20079;-76
2023/09/12 00:13:27;;;;;;;40.03;35.03;;;;;;;;;;4973166;28;20069;-76
2023/09/12 00:15:53;;;;;;;37.55;33.65;;;;;;;;;;4973438;28;20051;-76
2023/09/12 00:18:19;;;;;;;36.70;32.72;;;;;;;;;;4973193;28;20043;-76
2023/09/12 00:20:45;;;;;;;36.60;33.00;;;;;;;;;;4972680;28;20046;-76
2023/09/12 00:23:11;;;;;;;37.20;33.30;;;;;;;;;;4975853;28;20047;-75
2023/09/12 00:25:37;;;;;;;35.88;32.10;;;;;;;;;;4977133;28;20065;-75
2023/09/12 00:28:04;;;;;;;38.45;34.28;;;;;;;;;;4972982;28;20046;-75
2023/09/12 00:30:30;;;;;;;39.47;35.17;;;;;;;;;;4976866;28;20045;-76
2023/09/12 00:32:56;;;;;;;40.10;35.72;;;;;;;;;;4974594;28;20081;-75
2023/09/12 00:35:22;;;;;;;36.60;32.75;;;;;;;;;;4969291;28;20130;-75
2023/09/12 00:37:48;;;;;;;37.67;33.78;;;;;;;;;;4974160;28;20121;-76
2023/09/12 00:40:14;;;;;;;41.60;35.70;;;;;;;;;;4974967;28;20201;-76
2023/09/12 00:42:40;;;;;;;38.95;34.97;;;;;;;;;;4976616;28;20051;-77
2023/09/12 00:45:07;;;;;;;37.92;33.78;;;;;;;;;;4975745;28;20485;-75
2023/09/12 00:47:33;;;;;;;40.83;36.15;;;;;;;;;;4976410;28;20039;-76
2023/09/12 00:50:00;;;;;;;40.80;36.40;;;;;;;;;;4975993;28;20047;-75
2023/09/12 00:52:26;;;;;;;41.45;37.10;;;;;;;;;;4969247;28;20053;-75
2023/09/12 00:54:53;;;;;;;41.97;37.58;;;;;;;;;;4957824;29;20043;-75
2023/09/12 00:57:20;;;;;;;42.05;37.38;;;;;;;;;;4968357;28;20105;-76
2023/09/12 00:59:46;;;;;;;43.92;39.03;;;;;;;;;;4974948;28;20051;-76
2023/09/12 01:02:13;;;;;;;43.05;38.42;;;;;;;;;;4974818;28;20078;-76
2023/09/12 01:04:39;;;;;;;43.75;38.65;;;;;;;;;;4975948;28;20046;-76
2023/09/12 01:07:05;;;;;;;50.08;40.97;;;;;;;;;;4973523;28;20042;-75
2023/09/12 01:09:32;;;;;;;48.80;40.22;;;;;;;;;;4974162;28;20402;-75
2023/09/12 01:11:58;;;;;;;47.72;40.08;;;;;;;;;;4976004;28;20047;-75
2023/09/12 01:14:24;;;;;;;49.30;41.78;;;;;;;;;;4974935;28;20055;-75
2023/09/12 01:16:50;;;;;;;45.88;41.00;;;;;;;;;;4974611;28;20099;-75
2023/09/12 01:19:17;;;;;;;46.45;40.60;;;;;;;;;;4975497;28;20108;-75
2023/09/12 01:22:04;;;;;;;43.90;39.08;;;;;;;;;;4963669;28;20050;-76
2023/09/12 01:24:32;;;;;;;43.80;39.00;;;;;;;;;;4972692;28;20049;-76
2023/09/12 01:27:16;;;;;;;46.15;39.35;;;;;;;;;;4967274;28;20042;-76
2023/09/12 01:29:44;;;;;;;43.70;38.90;;;;;;;;;;4957397;28;20083;-76
2023/09/12 01:32:11;;;;;;;45.90;39.60;;;;;;;;;;4975457;28;20382;-76
2023/09/12 01:34:37;;;;;;;47.08;40.33;;;;;;;;;;4973692;28;20054;-76
2023/09/12 01:37:03;;;;;;;46.70;40.22;;;;;;;;;;4939969;28;20097;-76
2023/09/12 01:39:29;;;;;;;43.80;39.30;;;;;;;;;;4973319;28;20548;-76
2023/09/12 01:41:55;;;;;;;44.92;40.08;;;;;;;;;;4971104;28;20116;-76
2023/09/12 01:44:24;;;;;;;44.08;39.30;;;;;;;;;;4972112;28;20268;-76
2023/09/12 01:46:52;;;;;;;45.25;39.95;;;;;;;;;;4973547;28;20038;-76
2023/09/12 01:49:21;;;;;;;45.05;39.53;;;;;;;;;;4974154;28;20043;-76
2023/09/12 01:51:47;;;;;;;40.45;36.38;;;;;;;;;;4974817;28;20096;-76
2023/09/12 01:54:14;;;;;;;41.13;36.83;;;;;;;;;;4973803;28;20039;-76
2023/09/12 01:56:41;;;;;;;40.63;36.42;;;;;;;;;;4967490;28;20051;-77
2023/09/12 01:59:07;;;;;;;40.75;36.55;;;;;;;;;;4965389;28;20046;-76
2023/09/12 02:01:33;;;;;;;41.70;36.72;;;;;;;;;;4974368;28;20051;-76
2023/09/12 02:03:59;;;;;;;42.10;37.63;;;;;;;;;;4975057;28;20461;-76
2023/09/12 02:06:25;;;;;;;42.67;38.28;;;;;;;;;;4974423;28;20133;-76
2023/09/12 02:08:51;;;;;;;49.38;41.17;;;;;;;;;;4974866;28;20039;-77
2023/09/12 02:11:17;;;;;;;45.00;39.05;;;;;;;;;;4957475;28;20102;-76
2023/09/12 02:13:43;;;;;;;46.63;40.55;;;;;;;;;;4968136;28;20055;-76
2023/09/12 02:16:09;;;;;;;47.65;40.90;;;;;;;;;;4974457;28;20097;-76
2023/09/12 02:18:35;;;;;;;45.08;40.28;;;;;;;;;;4973748;28;20481;-76
2023/09/12 02:21:01;;;;;;;45.30;40.30;;;;;;;;;;4973517;28;20057;-76
2023/09/12 02:23:27;;;;;;;46.53;39.92;;;;;;;;;;4974824;28;20413;-76
2023/09/12 02:25:53;;;;;;;42.85;38.10;;;;;;;;;;4974920;28;20046;-76
2023/09/12 02:28:19;;;;;;;45.88;40.03;;;;;;;;;;4974216;28;20118;-76
2023/09/12 02:30:45;;;;;;;45.60;39.25;;;;;;;;;;4974562;28;20526;-77
2023/09/12 02:33:11;;;;;;;44.15;38.58;;;;;;;;;;4974159;28;20038;-76
2023/09/12 02:35:38;;;;;;;43.65;39.15;;;;;;;;;;4965740;28;20739;-77
2023/09/12 02:38:04;;;;;;;42.40;37.78;;;;;;;;;;4968867;28;20050;-77
2023/09/12 02:40:30;;;;;;;42.65;38.17;;;;;;;;;;4973577;28;20053;-76
2023/09/12 02:42:56;;;;;;;43.63;38.92;;;;;;;;;;4973565;28;20151;-76
2023/09/12 02:45:22;;;;;;;45.55;39.95;;;;;;;;;;4969980;28;20725;-76
2023/09/12 02:47:48;;;;;;;49.03;42.65;;;;;;;;;;4959955;28;20118;-76
2023/09/12 02:50:14;;;;;;;46.70;40.25;;;;;;;;;;4973409;28;20138;-76
2023/09/12 02:52:40;;;;;;;47.20;41.10;;;;;;;;;;4965694;28;20070;-77
2023/09/12 02:55:06;;;;;;;46.72;37.47;;;;;;;;;;4955047;28;20125;-76
2023/09/12 02:57:32;;;;;;;48.03;38.05;;;;;;;;;;4973220;28;20043;-76
2023/09/12 02:59:58;;;;;;;47.20;38.00;;;;;;;;;;4971576;28;20054;-76
2023/09/12 03:02:24;;;;;;;45.67;37.35;;;;;;;;;;4967600;28;20043;-75
2023/09/12 03:04:50;;;;;;;50.20;40.20;;;;;;;;;;4969235;28;20489;-76
2023/09/12 03:07:16;;;;;;;52.63;41.55;;;;;;;;;;4965292;28;20047;-76
2023/09/12 03:09:42;;;;;;;43.53;38.75;;;;;;;;;;4960822;28;20588;-76
2023/09/12 03:12:08;;;;;;;45.80;38.05;;;;;;;;;;4967991;28;20113;-76
2023/09/12 03:14:34;;;;;;;41.63;37.22;;;;;;;;;;4956617;28;20118;-76
2023/09/12 03:17:00;;;;;;;193.48;39.95;;;;;;;;;;4963207;28;20082;-76
2023/09/12 03:19:26;;;;;;;44.35;37.33;;;;;;;;;;4971419;28;20051;-76
2023/09/12 03:21:52;;;;;;;71.90;38.47;;;;;;;;;;4972678;28;20055;-76
2023/09/12 03:24:21;;;;;;;53.45;36.72;;;;;;;;;;4973104;28;20057;-76
2023/09/12 03:26:47;;;;;;;47.10;37.90;;;;;;;;;;4969523;28;20520;-75
2023/09/12 03:29:13;;;;;;;133.13;43.28;;;;;;;;;;4973395;28;20034;-77
2023/09/12 03:31:39;;;;;;;101.07;39.60;;;;;;;;;;4970958;28;20050;-76
2023/09/12 03:34:05;;;;;;;78.90;39.97;;;;;;;;;;4970251;28;20046;-76
2023/09/12 03:36:31;;;;;;;166.70;43.75;;;;;;;;;;4954353;28;20130;-76
2023/09/12 03:38:57;;;;;;;333.00;45.60;;;;;;;;;;4969905;28;20042;-76
2023/09/12 03:41:25;;;;;;;247.48;42.45;;;;;;;;;;4972171;28;20126;-76
2023/09/12 03:43:53;;;;;;;296.20;41.83;;;;;;;;;;4970066;28;20047;-75
2023/09/12 03:46:19;;;;;;;55.92;37.97;;;;;;;;;;4972610;28;20047;-75
2023/09/12 03:48:45;;;;;;;148.90;40.80;;;;;;;;;;4974658;28;20042;-75
2023/09/12 03:51:11;;;;;;;174.38;42.25;;;;;;;;;;4973055;28;20046;-76
2023/09/12 03:53:41;;;;;;;146.93;40.30;;;;;;;;;;4973603;28;20035;-76
2023/09/12 03:56:07;;;;;;;178.02;42.42;;;;;;;;;;4973981;28;20042;-76
2023/09/12 03:58:33;;;;;;;106.28;37.97;;;;;;;;;;4977673;28;20042;-75
2023/09/12 04:00:59;;;;;;;73.03;37.58;;;;;;;;;;4975840;28;20050;-76
2023/09/12 04:03:25;;;;;;;68.28;37.92;;;;;;;;;;4977163;28;20043;-76
2023/09/12 04:05:52;;;;;;;193.63;41.42;;;;;;;;;;4975854;28;20039;-75
2023/09/12 04:08:18;;;;;;;103.03;39.38;;;;;;;;;;4967787;28;20468;-75
2023/09/12 04:10:44;;;;;;;111.82;39.85;;;;;;;;;;4975104;28;20039;-75
2023/09/12 04:13:10;;;;;;;142.90;42.33;;;;;;;;;;4977004;28;20077;-76
2023/09/12 04:15:36;;;;;;;102.32;39.30;;;;;;;;;;4977144;28;20078;-76
2023/09/12 04:18:02;;;;;;;279.75;50.00;;;;;;;;;;4972143;28;20145;-76
2023/09/12 04:20:28;;;;;;;103.22;40.85;;;;;;;;;;4975625;28;20486;-75
2023/09/12 04:22:54;;;;;;;197.10;44.83;;;;;;;;;;4969403;28;20039;-75
2023/09/12 04:25:20;;;;;;;187.27;44.20;;;;;;;;;;4976435;28;20043;-75
2023/09/12 04:27:46;;;;;;;267.80;49.83;;;;;;;;;;4975786;28;20090;-75
2023/09/12 04:30:12;;;;;;;129.27;44.42;;;;;;;;;;4967594;28;20383;-76
2023/09/12 04:32:38;;;;;;;231.85;47.22;;;;;;;;;;4965727;28;20043;-75
2023/09/12 04:35:05;;;;;;;174.95;45.00;;;;;;;;;;4975075;28;20039;-76
2023/09/12 04:37:31;;;;;;;136.52;43.72;;;;;;;;;;4974196;28;20046;-76
2023/09/12 04:39:57;;;;;;;146.20;44.10;;;;;;;;;;4974720;28;20039;-76
2023/09/12 04:42:23;;;;;;;140.55;39.35;;;;;;;;;;4973352;28;20074;-76
2023/09/12 04:44:49;;;;;;;129.45;41.65;;;;;;;;;;4976382;28;20087;-76
2023/09/12 04:47:15;;;;;;;111.00;41.33;;;;;;;;;;4974792;28;20138;-76
2023/09/12 04:49:42;;;;;;;83.97;40.20;;;;;;;;;;4966360;28;20125;-76
2023/09/12 04:52:08;;;;;;;72.22;40.88;;;;;;;;;;4963874;28;20047;-76
2023/09/12 04:54:34;;;;;;;98.47;43.00;;;;;;;;;;4971045;28;20094;-75
2023/09/12 04:57:00;;;;;;;139.52;43.40;;;;;;;;;;4974438;28;20043;-76
2023/09/12 04:59:26;;;;;;;73.03;40.50;;;;;;;;;;4967610;28;20048;-76
2023/09/12 05:01:52;;;;;;;53.38;40.95;;;;;;;;;;4971102;28;20516;-76
2023/09/12 05:04:19;;;;;;;137.00;41.95;;;;;;;;;;4974270;28;20046;-76
2023/09/12 05:06:46;;;;;;;79.32;41.08;;;;;;;;;;4971210;28;20470;-76
2023/09/12 05:09:12;;;;;;;134.70;42.65;;;;;;;;;;4964461;28;20047;-76
2023/09/12 05:11:38;;;;;;;155.02;41.97;;;;;;;;;;4972520;28;20145;-76
2023/09/12 05:14:04;;;;;;;91.15;39.40;;;;;;;;;;4970101;28;20055;-76
2023/09/12 05:16:31;;;;;;;123.80;39.97;;;;;;;;;;4975952;28;20464;-76
2023/09/12 05:18:57;;;;;;;68.82;37.95;;;;;;;;;;4968999;28;20462;-76
2023/09/12 05:21:23;;;;;;;145.52;43.05;;;;;;;;;;4962517;28;20382;-77
2023/09/12 05:23:49;;;;;;;67.05;37.85;;;;;;;;;;4974353;28;20046;-77
2023/09/12 05:26:15;;;;;;;87.22;39.67;;;;;;;;;;4975060;28;20043;-77
2023/09/12 05:28:41;;;;;;;66.70;38.17;;;;;;;;;;4973167;28;20047;-76
2023/09/12 05:31:07;;;;;;;74.57;39.03;;;;;;;;;;4968061;28;20481;-76
2023/09/12 05:33:33;;;;;;;109.68;40.42;;;;;;;;;;4963901;28;20051;-76
2023/09/12 05:35:59;;;;;;;132.15;41.55;;;;;;;;;;4966814;28;20043;-76
2023/09/12 05:38:25;;;;;;;82.43;40.20;;;;;;;;;;4958990;28;20057;-76
2023/09/12 05:40:51;;;;;;;52.25;40.35;;;;;;;;;;4969885;28;20175;-76
2023/09/12 05:43:17;;;;;;;51.13;40.55;;;;;;;;;;4971716;28;20116;-76
2023/09/12 05:45:44;;;;;;;58.88;41.28;;;;;;;;;;4973774;28;20058;-76
2023/09/12 05:48:10;;;;;;;66.22;40.15;;;;;;;;;;4974732;28;20107;-76
2023/09/12 05:50:39;;;;;;;66.15;40.63;;;;;;;;;;4972974;28;20089;-77
2023/09/12 05:53:05;;;;;;;50.30;39.70;;;;;;;;;;4974644;28;20082;-76
2023/09/12 05:55:31;;;;;;;65.97;39.83;;;;;;;;;;4974653;28;20039;-77
2023/09/12 05:57:57;;;;;;;65.05;40.72;;;;;;;;;;4974149;28;20051;-77
2023/09/12 06:00:23;;;;;;;54.38;37.50;;;;;;;;;;4956924;28;20079;-77
2023/09/12 06:02:49;;;;;;;48.13;38.67;;;;;;;;;;4974055;28;20456;-76
2023/09/12 06:05:16;;;;;;;43.13;38.50;;;;;;;;;;4969671;28;20394;-76
2023/09/12 06:07:42;;;;;;;46.75;38.20;;;;;;;;;;4961119;28;20046;-75
2023/09/12 06:10:08;;;;;;;44.70;38.42;;;;;;;;;;4955896;28;20071;-75
2023/09/12 06:12:36;;;;;;;40.53;35.85;;;;;;;;;;4961276;28;20055;-75
2023/09/12 06:15:02;;;;;;;49.65;41.25;;;;;;;;;;4973317;28;20096;-75
2023/09/12 06:17:28;;;;;;;54.63;40.53;;;;;;;;;;4974788;28;20112;-75
2023/09/12 06:19:55;;;;;;;40.97;34.63;;;;;;;;;;4973633;28;20223;-76
2023/09/12 06:22:22;;;;;;;57.00;41.17;;;;;;;;;;4973126;28;20061;-76
2023/09/12 06:24:49;;;;;;;43.40;37.70;;;;;;;;;;4974381;28;20066;-75
2023/09/12 06:27:18;;;;;;;52.30;40.05;;;;;;;;;;4973812;28;20053;-75
2023/09/12 06:29:45;;;;;;;49.72;40.92;;;;;;;;;;4973266;28;20051;-75
2023/09/12 06:32:12;;;;;;;40.28;35.42;;;;;;;;;;4974263;28;20172;-75
2023/09/12 06:34:38;;;;;;;49.70;38.55;;;;;;;;;;4973375;28;20409;-75
2023/09/12 06:37:04;;;;;;;52.58;41.80;;;;;;;;;;4971463;28;20134;-75
2023/09/12 06:39:30;;;;;;;50.40;41.28;;;;;;;;;;4971640;28;20043;-75
2023/09/12 06:41:56;;;;;;;50.90;41.92;;;;;;;;;;4969146;28;20050;-75
2023/09/12 06:44:22;;;;;;;48.90;39.70;;;;;;;;;;4974032;28;20046;-75
2023/09/12 06:46:48;;;;;;;43.63;38.80;;;;;;;;;;4974065;28;20093;-77
2023/09/12 06:49:14;;;;;;;48.38;39.55;;;;;;;;;;4974111;28;20051;-75
2023/09/12 06:51:40;;;;;;;40.78;35.55;;;;;;;;;;4973975;28;20054;-75
2023/09/12 06:54:06;;;;;;;53.92;38.85;;;;;;;;;;4964505;28;20043;-75
2023/09/12 06:56:37;;;;;;;42.78;38.03;;;;;;;;;;4973126;28;20047;-75
2023/09/12 06:59:03;;;;;;;41.60;35.10;;;;;;;;;;4972389;28;20108;-75
2023/09/12 07:01:29;;;;;;;49.05;38.28;;;;;;;;;;4966679;28;20036;-75
2023/09/12 07:03:56;;;;;;;42.03;37.40;;;;;;;;;;4956453;28;20191;-75
2023/09/12 07:06:22;;;;;;;37.25;33.28;;;;;;;;;;4966156;28;21738;-75
2023/09/12 07:08:48;;;;;;;37.95;33.85;;;;;;;;;;4970983;28;20073;-74
2023/09/12 07:11:14;;;;;;;39.92;35.53;;;;;;;;;;4964858;28;20053;-74
2023/09/12 07:13:40;;;;;;;39.55;34.88;;;;;;;;;;4971297;28;20070;-75
2023/09/12 07:16:06;;;;;;;41.47;36.80;;;;;;;;;;4966041;28;20045;-75
2023/09/12 07:18:32;;;;;;;44.00;37.78;;;;;;;;;;4968540;28;20046;-76
2023/09/12 07:20:59;;;;;;;41.50;37.00;;;;;;;;;;4972851;28;20407;-75
2023/09/12 07:23:25;;;;;;;43.55;37.47;;;;;;;;;;4972867;28;20130;-75
2023/09/12 07:25:52;;;;;;;45.25;38.80;;;;;;;;;;4972936;28;20047;-74
2023/09/12 07:28:19;;;;;;;45.28;39.63;;;;;;;;;;4973545;28;20050;-75
2023/09/12 07:30:48;;;;;;;47.83;39.85;;;;;;;;;;4968777;28;20463;-75
2023/09/12 07:33:14;;;;;;;44.63;38.45;;;;;;;;;;4970323;28;20042;-75
2023/09/12 07:35:40;;;;;;;42.40;37.63;;;;;;;;;;4969151;28;20468;-75
2023/09/12 07:38:06;;;;;;;46.40;38.80;;;;;;;;;;4949084;28;20685;-75
2023/09/12 07:40:32;;;;;;;43.95;37.72;;;;;;;;;;4973402;28;20138;-75
2023/09/12 07:42:58;;;;;;;49.00;40.22;;;;;;;;;;4968818;28;20126;-75
2023/09/12 07:45:24;;;;;;;41.15;36.25;;;;;;;;;;4966070;28;20139;-75
2023/09/12 07:47:50;;;;;;;43.33;38.63;;;;;;;;;;4972162;28;20250;-75
2023/09/12 07:50:16;;;;;;;42.72;38.03;;;;;;;;;;4973274;28;20109;-74
2023/09/12 07:52:43;;;;;;;45.17;38.17;;;;;;;;;;4971555;28;20047;-75
2023/09/12 07:55:09;;;;;;;41.60;36.92;;;;;;;;;;4972704;28;20047;-75
2023/09/12 07:57:36;;;;;;;42.75;37.80;;;;;;;;;;4972182;28;20047;-75
2023/09/12 08:00:04;;;;;;;42.25;36.60;;;;;;;;;;4958108;28;20077;-74
2023/09/12 08:02:31;;;;;;;42.03;36.20;;;;;;;;;;4966879;28;20052;-74
2023/09/12 08:04:57;;;;;;;41.38;36.05;;;;;;;;;;4971573;28;20512;-74
2023/09/12 08:07:23;;;;;;;43.70;37.50;;;;;;;;;;4971576;28;20063;-74
2023/09/12 08:09:59;;;;;;;42.15;37.15;;;;;;;;;;4967108;28;20051;-74
2023/09/12 08:12:27;;;;;;;43.25;38.58;;;;;;;;;;4951645;28;20051;-74
2023/09/12 08:14:53;;;;;;;44.47;37.15;;;;;;;;;;4970324;28;20046;-75
2023/09/12 08:17:19;;;;;;;45.00;37.90;;;;;;;;;;4967688;28;20401;-74
2023/09/12 08:19:46;;;;;;;38.50;34.28;;;;;;;;;;4969316;28;20505;-74
2023/09/12 08:22:12;;;;;;;41.65;35.75;;;;;;;;;;4965864;28;20050;-75
2023/09/12 08:24:39;;;;;;;39.03;34.42;;;;;;;;;;4971504;28;20465;-74
2023/09/12 08:27:05;;;;;;;49.28;39.05;;;;;;;;;;4971741;28;20050;-76
2023/09/12 08:29:32;;;;;;;41.10;36.38;;;;;;;;;;4972495;28;20382;-75
2023/09/12 08:31:58;;;;;;;44.13;36.95;;;;;;;;;;4972191;28;20155;-74
2023/09/12 08:34:25;;;;;;;42.38;37.03;;;;;;;;;;4971647;28;20453;-74
2023/09/12 08:36:51;;;;;;;41.92;34.95;;;;;;;;;;4970381;28;20050;-74
2023/09/12 08:39:18;;;;;;;39.40;35.15;;;;;;;;;;4953413;28;20122;-74
2023/09/12 08:41:47;;;;;;;42.05;36.97;;;;;;;;;;4970996;28;20043;-74
2023/09/12 08:44:13;;;;;;;37.38;33.25;;;;;;;;;;4962892;28;20097;-74
2023/09/12 08:46:42;;;;;;;43.97;37.25;;;;;;;;;;4963411;28;20079;-74
2023/09/12 08:49:11;;;;;;;41.17;35.47;;;;;;;;;;4973661;28;20054;-74
2023/09/12 08:51:40;;;;;;;41.28;36.78;;;;;;;;;;4975154;28;20043;-75
2023/09/12 08:54:09;;;;;;;41.88;35.88;;;;;;;;;;4975221;28;20133;-74
2023/09/12 08:56:37;;;;;;;41.15;34.47;;;;;;;;;;4975126;28;20053;-75
2023/09/12 08:59:04;;;;;;;40.67;36.22;;;;;;;;;;4974248;28;20556;-74
2023/09/12 09:01:31;;;;;;;39.67;34.33;;;;;;;;;;4973604;28;20066;-76
2023/09/12 09:03:57;;;;;;;42.00;33.72;;;;;;;;;;4967874;28;20382;-75
2023/09/12 09:06:24;;;;;;;42.60;36.22;;;;;;;;;;4947662;28;20093;-74
2023/09/12 09:08:53;;;;;;;39.03;34.28;;;;;;;;;;4966221;28;20053;-74
2023/09/12 09:11:19;;;;;;;40.83;34.13;;;;;;;;;;4961835;28;20054;-74
2023/09/12 09:13:47;;;;;;;39.95;34.10;;;;;;;;;;4974051;28;20397;-74
2023/09/12 09:16:18;;;;;;;42.90;34.92;;;;;;;;;;4974809;28;20062;-75
2023/09/12 09:19:00;;;;;;;38.03;33.90;;;;;;;;;;4974086;28;20125;-74
2023/09/12 09:21:30;;;;;;;40.03;33.53;;;;;;;;;;4955544;28;20101;-74
2023/09/12 09:23:58;;;;;;;38.58;33.45;;;;;;;;;;4975380;28;20057;-74
2023/09/12 09:26:24;;;;;;;37.92;31.58;;;;;;;;;;4972889;28;20035;-74
2023/09/12 09:29:10;;;;;;;39.42;33.55;;;;;;;;;;4974653;28;20038;-75
2023/09/12 09:31:40;;;;;;;37.25;31.48;;;;;;;;;;4973885;28;20042;-74
2023/09/12 09:34:11;;;;;;;36.53;31.80;;;;;;;;;;4974053;28;20690;-74
2023/09/12 09:36:37;;;;;;;37.50;31.70;;;;;;;;;;4969128;28;20395;-74
2023/09/12 09:39:04;;;;;;;37.05;32.22;;;;;;;;;;4965197;28;20050;-74
2023/09/12 09:41:31;;;;;;;35.58;30.65;;;;;;;;;;4968174;28;20509;-75
2023/09/12 09:43:57;;;;;;;38.17;30.75;;;;;;;;;;4965780;28;20038;-74
2023/09/12 09:46:23;;;;;;;37.33;31.92;;;;;;;;;;4962098;28;20051;-74
2023/09/12 09:48:50;;;;;;;39.00;31.90;;;;;;;;;;4970152;28;20134;-74
2023/09/12 09:51:16;;;;;;;38.92;32.90;;;;;;;;;;4975029;28;20483;-74
2023/09/12 09:53:43;;;;;;;37.97;31.45;;;;;;;;;;4975026;28;20051;-74
2023/09/12 09:56:13;;;;;;;33.67;29.85;;;;;;;;;;4973516;28;20061;-74
2023/09/12 09:58:43;;;;;;;35.08;28.13;;;;;;;;;;4975014;28;20047;-74
2023/09/12 10:01:10;;;;;;;33.78;27.27;;;;;;;;;;4964641;28;20122;-75
2023/09/12 10:03:37;;;;;;;33.10;26.92;;;;;;;;;;4966569;28;20481;-75
2023/09/12 10:06:04;;;;;;;30.33;26.48;;;;;;;;;;4974913;28;20050;-76
2023/09/12 10:08:31;;;;;;;31.88;28.35;;;;;;;;;;4974620;28;20556;-71
2023/09/12 10:10:59;;;;;;;36.53;30.58;;;;;;;;;;4956519;28;20046;-71
2023/09/12 10:13:30;;;;;;;33.58;28.13;;;;;;;;;;4963200;28;20059;-70
2023/09/12 10:15:57;;;;;;;33.88;28.38;;;;;;;;;;4971042;28;20455;-70
2023/09/12 10:18:25;;;;;;;31.38;27.35;;;;;;;;;;4963961;28;20042;-70
2023/09/12 10:20:53;;;;;;;31.75;27.63;;;;;;;;;;4973933;28;20057;-70
2023/09/12 10:23:37;;;;;;;33.95;28.17;;;;;;;;;;4974643;28;20082;-70
2023/09/12 10:26:03;;;;;;;32.17;27.80;;;;;;;;;;4960807;28;20058;-70
2023/09/12 10:28:30;;;;;;;33.50;28.75;;;;;;;;;;4973661;28;20046;-70
2023/09/12 10:30:58;;;;;;;34.08;27.25;;;;;;;;;;4973389;28;20058;-69
2023/09/12 10:33:25;;;;;;;31.92;27.60;;;;;;;;;;4973597;28;20051;-70
2023/09/12 10:35:52;;;;;;;31.70;27.23;;;;;;;;;;4957597;28;20055;-70
2023/09/12 10:38:19;;;;;;;32.40;26.75;;;;;;;;;;4955008;29;20047;-70
2023/09/12 10:40:45;;;;;;;32.30;28.20;;;;;;;;;;4954327;28;20101;-70
2023/09/12 10:43:12;;;;;;;27.30;24.35;;;;;;;;;;4974305;28;20046;-70
2023/09/12 10:45:39;;;;;;;29.10;24.00;;;;;;;;;;4974010;28;20070;-70
2023/09/12 10:48:05;;;;;;;29.45;24.27;;;;;;;;;;4972538;28;20043;-70
2023/09/12 10:50:31;;;;;;;27.35;24.02;;;;;;;;;;4969972;28;20046;-70
2023/09/12 10:53:08;;;;;;;27.80;24.45;;;;;;;;;;4974182;28;20049;-70
2023/09/12 10:55:34;;;;;;;30.67;25.67;;;;;;;;;;4972102;28;20358;-69
2023/09/12 10:58:08;;;;;;;30.05;26.58;;;;;;;;;;4962963;28;20035;-70
2023/09/12 11:00:37;;;;;;;29.48;25.33;;;;;;;;;;4965724;28;20043;-70
2023/09/12 11:03:21;;;;;;;29.52;25.45;;;;;;;;;;4967734;28;20561;-70
2023/09/12 11:05:54;;;;;;;28.27;23.50;;;;;;;;;;4964901;28;20051;-70
2023/09/12 11:08:20;;;;;;;25.17;22.48;;;;;;;;;;4973794;28;20047;-70
2023/09/12 11:11:06;;;;;;;24.55;21.48;;;;;;;;;;4973911;28;20117;-70
2023/09/12 11:13:41;;;;;;;24.42;20.75;;;;;;;;;;4954100;28;20410;-70
2023/09/12 11:16:11;;;;;;;26.50;22.33;;;;;;;;;;4962878;28;20121;-70
2023/09/12 11:18:55;;;;;;;25.88;21.70;;;;;;;;;;4973741;28;20126;-69
2023/09/12 11:21:32;;;;;;;23.45;20.95;;;;;;;;;;4973788;28;20051;-70
2023/09/12 11:23:58;;;;;;;24.45;21.48;;;;;;;;;;4972680;28;20043;-70
2023/09/12 11:26:24;;;;;;;24.98;21.50;;;;;;;;;;4973545;28;20387;-70
2023/09/12 11:28:50;;;;;;;24.33;20.17;;;;;;;;;;4972261;28;20042;-70
2023/09/12 11:31:28;;;;;;;23.13;20.45;;;;;;;;;;4973716;28;20582;-70
2023/09/12 11:33:54;;;;;;;22.50;20.13;;;;;;;;;;4972682;28;20085;-70
2023/09/12 11:36:20;;;;;;;23.45;20.73;;;;;;;;;;4973540;28;20537;-70
2023/09/12 11:38:50;;;;;;;22.08;19.77;;;;;;;;;;4972956;28;20390;-69
2023/09/12 11:41:36;;;;;;;23.50;18.70;;;;;;;;;;4973012;28;20497;-71
2023/09/12 11:44:03;;;;;;;20.92;18.83;;;;;;;;;;4973359;28;20116;-70
2023/09/12 11:46:30;;;;;;;22.52;20.13;;;;;;;;;;4973559;28;20042;-70
2023/09/12 11:48:57;;;;;;;23.05;20.02;;;;;;;;;;4973666;28;20054;-70
2023/09/12 11:51:26;;;;;;;22.83;19.02;;;;;;;;;;4973574;28;20050;-70
2023/09/12 11:53:53;;;;;;;20.67;18.23;;;;;;;;;;4971240;28;20097;-69
2023/09/12 11:56:20;;;;;;;42.03;27.75;;;;;;;;;;4970713;28;20066;-69
2023/09/12 11:58:46;;;;;;;56.70;33.38;;;;;;;;;;4956120;28;20436;-70
2023/09/12 12:01:14;;;;;;;22.92;19.45;;;;;;;;;;4956333;28;20084;-68
2023/09/12 12:03:40;;;;;;;25.52;18.67;;;;;;;;;;4956542;28;20051;-69
2023/09/12 12:06:06;;;;;;;21.13;17.63;;;;;;;;;;4972555;28;20417;-68
2023/09/12 12:08:32;;;;;;;23.05;16.95;;;;;;;;;;4969422;28;20043;-68
2023/09/12 12:10:59;;;;;;;19.90;16.80;;;;;;;;;;4957563;28;20038;-69
2023/09/12 12:13:25;;;;;;;20.20;17.95;;;;;;;;;;4972218;28;20153;-68
2023/09/12 12:15:51;;;;;;;20.05;17.73;;;;;;;;;;4952121;29;20061;-68
2023/09/12 12:18:17;;;;;;;18.65;16.67;;;;;;;;;;4957493;28;20083;-68
2023/09/12 12:20:43;;;;;;;18.73;15.50;;;;;;;;;;4974556;28;20050;-69
2023/09/12 12:23:09;;;;;;;17.85;15.90;;;;;;;;;;4976857;28;20347;-70
2023/09/12 12:25:36;;;;;;;20.30;15.88;;;;;;;;;;4976776;28;20485;-69
2023/09/12 12:28:02;;;;;;;17.15;15.35;;;;;;;;;;4976977;28;20050;-70
2023/09/12 12:30:32;;;;;;;17.67;15.70;;;;;;;;;;4976380;28;20188;-69
2023/09/12 12:32:58;;;;;;;17.70;15.55;;;;;;;;;;4975711;28;20138;-69
2023/09/12 12:35:24;;;;;;;17.17;15.23;;;;;;;;;;4976348;28;20413;-70
2023/09/12 12:37:51;;;;;;;18.60;15.05;;;;;;;;;;4973291;28;20047;-70
2023/09/12 12:40:17;;;;;;;16.85;15.02;;;;;;;;;;4975789;28;20481;-70
2023/09/12 12:42:48;;;;;;;16.33;13.02;;;;;;;;;;4964025;28;20405;-70
2023/09/12 12:45:15;;;;;;;17.38;14.02;;;;;;;;;;4968963;28;20135;-70
2023/09/12 12:47:41;;;;;;;18.38;14.68;;;;;;;;;;4969123;28;20051;-70
2023/09/12 12:50:14;;;;;;;17.05;14.80;;;;;;;;;;4973738;28;20094;-72
2023/09/12 12:52:40;;;;;;;16.83;13.88;;;;;;;;;;4975040;28;20053;-72
2023/09/12 12:55:07;;;;;;;15.15;13.07;;;;;;;;;;4976520;28;20042;-71
2023/09/12 12:57:36;;;;;;;17.35;13.75;;;;;;;;;;4976519;28;20042;-70
2023/09/12 13:00:03;;;;;;;16.65;13.02;;;;;;;;;;4976362;28;20074;-70
2023/09/12 13:02:29;;;;;;;17.15;13.10;;;;;;;;;;4959141;28;20051;-70
2023/09/12 13:04:55;;;;;;;19.30;15.07;;;;;;;;;;4972391;28;20126;-70
2023/09/12 13:07:21;;;;;;;18.33;13.85;;;;;;;;;;4975080;28;20058;-71
2023/09/12 13:09:48;;;;;;;16.92;12.95;;;;;;;;;;4959213;28;20055;-70
2023/09/12 13:12:14;;;;;;;19.10;13.90;;;;;;;;;;4976105;28;20129;-70
2023/09/12 13:14:40;;;;;;;16.65;14.48;;;;;;;;;;4958634;28;20058;-70
2023/09/12 13:17:07;;;;;;;15.18;13.35;;;;;;;;;;4972999;28;20058;-70
2023/09/12 13:19:33;;;;;;;15.68;13.98;;;;;;;;;;4976022;28;20065;-70
2023/09/12 13:21:59;;;;;;;16.27;13.48;;;;;;;;;;4976063;28;20365;-70
2023/09/12 13:24:25;;;;;;;19.98;14.35;;;;;;;;;;4966866;28;20541;-70
2023/09/12 13:26:53;;;;;;;17.35;13.60;;;;;;;;;;4956469;29;20549;-70
2023/09/12 13:29:19;;;;;;;14.63;13.13;;;;;;;;;;4958648;28;20051;-70
2023/09/12 13:31:46;;;;;;;15.55;12.93;;;;;;;;;;4975605;28;20057;-70
2023/09/12 13:34:12;;;;;;;16.58;12.55;;;;;;;;;;4970677;28;20051;-70
2023/09/12 13:36:38;;;;;;;15.38;13.23;;;;;;;;;;4958488;28;20057;-70
2023/09/12 13:39:06;;;;;;;15.10;11.65;;;;;;;;;;4975531;28;20503;-70
2023/09/12 13:41:32;;;;;;;15.85;12.07;;;;;;;;;;4974359;28;20078;-70
2023/09/12 13:43:58;;;;;;;14.02;11.77;;;;;;;;;;4975499;28;20045;-70
2023/09/12 13:46:24;;;;;;;13.80;11.63;;;;;;;;;;4975516;28;20058;-70
2023/09/12 13:48:50;;;;;;;16.70;12.93;;;;;;;;;;4974705;28;20038;-70
2023/09/12 13:51:16;;;;;;;14.35;12.82;;;;;;;;;;4975619;28;20054;-70
2023/09/12 13:53:43;;;;;;;15.38;13.65;;;;;;;;;;4973210;28;20051;-69
2023/09/12 13:56:09;;;;;;;14.15;12.43;;;;;;;;;;4960580;28;20101;-70
2023/09/12 13:58:35;;;;;;;13.55;11.90;;;;;;;;;;4969845;28;20038;-70
2023/09/12 14:01:03;;;;;;;15.02;11.82;;;;;;;;;;4962369;28;20126;-70
2023/09/12 14:03:29;;;;;;;14.32;12.68;;;;;;;;;;4969279;28;20517;-70
2023/09/12 14:05:55;;;;;;;15.60;12.40;;;;;;;;;;4974992;28;20414;-70
2023/09/12 14:08:21;;;;;;;14.32;11.57;;;;;;;;;;4975235;28;20137;-70
2023/09/12 14:10:47;;;;;;;12.48;11.15;;;;;;;;;;4971240;28;20053;-71
2023/09/12 14:13:13;;;;;;;14.50;11.73;;;;;;;;;;4966209;28;20070;-69
2023/09/12 14:15:39;;;;;;;14.40;11.77;;;;;;;;;;4964598;28;20054;-71